sensor_id;sensor_type;location;lat;lon;timestamp;temperature;humidity
20735;DHT22;10528;52.124;5.196;2024-01-15T00:00:59;3.10;99.90
20735;DHT22;10528;52.124;5.196;2024-01-15T00:03:27;3.10;99.90
20735;DHT22;10528;52.124;5.196;2024-01-15T00:05:54;3.00;99.90
20735;DHT22;10528;52.124;5.196;2024-01-15T00:08:21;3.00;99.90
20735;DHT22;10528;52.124;5.196;2024-01-15T00:10:48;3.00;99.90
20735;DHT22;10528;52.124;5.196;2024-01-15T00:13:15;3.00;99.90
20735;DHT22;10528;52.124;5.196;2024-01-15T00:15:41;2.90;99.90
20735;DHT22;10528;52.124;5.196;2024-01-15T00:18:08;2.90;99.90
20735;DHT22;10528;52.124;5.196;2024-01-15T00:20:36;2.90;99.90
20735;DHT22;10528;52.124;5.196;2024-01-15T00:23:03;2.90;99.90
20735;DHT22;10528;52.124;5.196;2024-01-15T00:25:30;2.90;99.90
20735;DHT22;10528;52.124;5.196;2024-01-15T00:27:57;3.00;99.90
20735;DHT22;10528;52.124;5.196;2024-01-15T00:30:24;3.00;99.90
20735;DHT22;10528;52.124;5.196;2024-01-15T00:32:50;2.90;99.90
20735;DHT22;10528;52.124;5.196;2024-01-15T00:35:18;2.90;99.90
20735;DHT22;10528;52.124;5.196;2024-01-15T00:37:44;2.80;99.90
20735;DHT22;10528;52.124;5.196;2024-01-15T00:40:11;2.80;99.90
20735;DHT22;10528;52.124;5.196;2024-01-15T00:42:38;2.80;99.90
20735;DHT22;10528;52.124;5.196;2024-01-15T00:45:06;2.80;99.90
20735;DHT22;10528;52.124;5.196;2024-01-15T00:47:34;3.00;99.90
20735;DHT22;10528;52.124;5.196;2024-01-15T00:50:01;2.90;99.90
20735;DHT22;10528;52.124;5.196;2024-01-15T00:52:28;2.90;99.90
20735;DHT22;10528;52.124;5.196;2024-01-15T00:54:55;2.90;99.90
20735;DHT22;10528;52.124;5.196;2024-01-15T00:57:22;3.00;99.90
20735;DHT22;10528;52.124;5.196;2024-01-15T00:59:49;3.00;99.90
20735;DHT22;10528;52.124;5.196;2024-01-15T01:02:16;3.00;99.90
20735;DHT22;10528;52.124;5.196;2024-01-15T01:04:43;3.00;99.90
20735;DHT22;10528;52.124;5.196;2024-01-15T01:07:10;3.00;99.90
20735;DHT22;10528;52.124;5.196;2024-01-15T01:09:37;3.00;99.90
20735;DHT22;10528;52.124;5.196;2024-01-15T01:12:04;3.00;99.90
20735;DHT22;10528;52.124;5.196;2024-01-15T01:14:32;3.00;99.90
20735;DHT22;10528;52.124;5.196;2024-01-15T01:16:59;3.00;99.90
20735;DHT22;10528;52.124;5.196;2024-01-15T01:19:26;3.00;99.90
20735;DHT22;10528;52.124;5.196;2024-01-15T01:21:53;3.00;99.90
20735;DHT22;10528;52.124;5.196;2024-01-15T01:24:20;3.00;99.90
20735;DHT22;10528;52.124;5.196;2024-01-15T01:26:47;3.10;99.90
20735;DHT22;10528;52.124;5.196;2024-01-15T01:29:14;3.10;99.90
20735;DHT22;10528;52.124;5.196;2024-01-15T01:31:44;3.10;99.90
20735;DHT22;10528;52.124;5.196;2024-01-15T01:34:14;3.10;99.90
20735;DHT22;10528;52.124;5.196;2024-01-15T01:36:43;3.10;99.90
20735;DHT22;10528;52.124;5.196;2024-01-15T01:39:10;3.20;99.90
20735;DHT22;10528;52.124;5.196;2024-01-15T01:41:38;3.20;99.90
20735;DHT22;10528;52.124;5.196;2024-01-15T01:44:06;3.20;99.90
20735;DHT22;10528;52.124;5.196;2024-01-15T01:46:34;3.20;99.90
20735;DHT22;10528;52.124;5.196;2024-01-15T01:49:08;3.20;99.90
20735;DHT22;10528;52.124;5.196;2024-01-15T01:51:36;3.20;99.90
20735;DHT22;10528;52.124;5.196;2024-01-15T01:54:07;3.20;99.90
20735;DHT22;10528;52.124;5.196;2024-01-15T01:56:36;3.20;99.90
20735;DHT22;10528;52.124;5.196;2024-01-15T01:59:04;3.10;99.90
20735;DHT22;10528;52.124;5.196;2024-01-15T02:01:32;3.10;99.90
20735;DHT22;10528;52.124;5.196;2024-01-15T02:04:00;3.10;99.90
20735;DHT22;10528;52.124;5.196;2024-01-15T02:06:27;3.10;99.90
20735;DHT22;10528;52.124;5.196;2024-01-15T02:08:55;3.10;99.90
20735;DHT22;10528;52.124;5.196;2024-01-15T02:11:22;3.20;99.90
20735;DHT22;10528;52.124;5.196;2024-01-15T02:13:50;3.20;99.90
20735;DHT22;10528;52.124;5.196;2024-01-15T02:16:17;3.20;99.90
20735;DHT22;10528;52.124;5.196;2024-01-15T02:18:45;3.30;99.90
20735;DHT22;10528;52.124;5.196;2024-01-15T02:21:13;3.20;99.90
20735;DHT22;10528;52.124;5.196;2024-01-15T02:23:40;3.20;99.90
20735;DHT22;10528;52.124;5.196;2024-01-15T02:26:08;3.00;99.90
20735;DHT22;10528;52.124;5.196;2024-01-15T02:28:35;3.00;99.90
20735;DHT22;10528;52.124;5.196;2024-01-15T02:31:03;3.10;99.90
20735;DHT22;10528;52.124;5.196;2024-01-15T02:33:30;3.00;99.90
20735;DHT22;10528;52.124;5.196;2024-01-15T02:35:57;2.90;99.90
20735;DHT22;10528;52.124;5.196;2024-01-15T02:38:24;2.90;99.90
20735;DHT22;10528;52.124;5.196;2024-01-15T02:40:51;3.00;99.90
20735;DHT22;10528;52.124;5.196;2024-01-15T02:43:18;2.90;99.90
20735;DHT22;10528;52.124;5.196;2024-01-15T02:45:46;2.90;99.90
20735;DHT22;10528;52.124;5.196;2024-01-15T02:48:16;3.00;99.90
20735;DHT22;10528;52.124;5.196;2024-01-15T02:50:43;2.90;99.90
20735;DHT22;10528;52.124;5.196;2024-01-15T02:53:10;2.90;99.90
20735;DHT22;10528;52.124;5.196;2024-01-15T02:55:36;2.90;99.90
20735;DHT22;10528;52.124;5.196;2024-01-15T02:58:04;2.90;99.90
20735;DHT22;10528;52.124;5.196;2024-01-15T03:00:31;2.80;99.90
20735;DHT22;10528;52.124;5.196;2024-01-15T03:02:58;2.90;99.90
20735;DHT22;10528;52.124;5.196;2024-01-15T03:05:25;2.80;99.90
20735;DHT22;10528;52.124;5.196;2024-01-15T03:07:52;2.80;99.90
20735;DHT22;10528;52.124;5.196;2024-01-15T03:10:19;2.80;99.90
20735;DHT22;10528;52.124;5.196;2024-01-15T03:12:46;2.90;99.90
20735;DHT22;10528;52.124;5.196;2024-01-15T03:15:13;2.80;99.90
20735;DHT22;10528;52.124;5.196;2024-01-15T03:17:41;2.90;99.90
20735;DHT22;10528;52.124;5.196;2024-01-15T03:20:10;2.80;99.90
20735;DHT22;10528;52.124;5.196;2024-01-15T03:22:37;2.70;99.90
20735;DHT22;10528;52.124;5.196;2024-01-15T03:25:05;2.70;99.90
20735;DHT22;10528;52.124;5.196;2024-01-15T03:27:32;2.80;99.90
20735;DHT22;10528;52.124;5.196;2024-01-15T03:30:00;2.80;99.90
20735;DHT22;10528;52.124;5.196;2024-01-15T03:32:27;2.80;99.90
20735;DHT22;10528;52.124;5.196;2024-01-15T03:34:54;2.80;99.90
20735;DHT22;10528;52.124;5.196;2024-01-15T03:37:21;2.80;99.90
20735;DHT22;10528;52.124;5.196;2024-01-15T03:39:48;2.90;99.90
20735;DHT22;10528;52.124;5.196;2024-01-15T03:42:15;2.90;99.90
20735;DHT22;10528;52.124;5.196;2024-01-15T03:44:42;3.00;99.90
20735;DHT22;10528;52.124;5.196;2024-01-15T03:47:09;3.00;99.90
20735;DHT22;10528;52.124;5.196;2024-01-15T03:49:36;3.10;99.90
20735;DHT22;10528;52.124;5.196;2024-01-15T03:52:04;3.10;99.90
20735;DHT22;10528;52.124;5.196;2024-01-15T03:54:31;3.10;99.90
20735;DHT22;10528;52.124;5.196;2024-01-15T03:56:58;3.10;99.90
20735;DHT22;10528;52.124;5.196;2024-01-15T03:59:26;3.10;99.90
20735;DHT22;10528;52.124;5.196;2024-01-15T04:01:53;3.10;99.90
20735;DHT22;10528;52.124;5.196;2024-01-15T04:04:20;3.10;99.90
20735;DHT22;10528;52.124;5.196;2024-01-15T04:06:47;3.00;99.90
20735;DHT22;10528;52.124;5.196;2024-01-15T04:09:14;3.00;99.90
20735;DHT22;10528;52.124;5.196;2024-01-15T04:11:41;2.90;99.90
20735;DHT22;10528;52.124;5.196;2024-01-15T04:14:08;3.00;99.90
20735;DHT22;10528;52.124;5.196;2024-01-15T04:16:37;3.00;99.90
20735;DHT22;10528;52.124;5.196;2024-01-15T04:19:04;2.90;99.90
20735;DHT22;10528;52.124;5.196;2024-01-15T04:21:31;2.90;99.90
20735;DHT22;10528;52.124;5.196;2024-01-15T04:23:59;2.90;99.90
20735;DHT22;10528;52.124;5.196;2024-01-15T04:26:25;2.90;99.90
20735;DHT22;10528;52.124;5.196;2024-01-15T04:28:52;2.80;99.90
20735;DHT22;10528;52.124;5.196;2024-01-15T04:31:23;2.80;99.90
20735;DHT22;10528;52.124;5.196;2024-01-15T04:33:51;2.90;99.90
20735;DHT22;10528;52.124;5.196;2024-01-15T04:36:18;2.80;99.90
20735;DHT22;10528;52.124;5.196;2024-01-15T04:38:45;2.80;99.90
20735;DHT22;10528;52.124;5.196;2024-01-15T04:41:13;2.70;99.90
20735;DHT22;10528;52.124;5.196;2024-01-15T04:43:40;2.70;99.90
20735;DHT22;10528;52.124;5.196;2024-01-15T04:46:08;2.70;99.90
20735;DHT22;10528;52.124;5.196;2024-01-15T04:48:36;2.80;99.90
20735;DHT22;10528;52.124;5.196;2024-01-15T04:51:04;2.80;99.90
20735;DHT22;10528;52.124;5.196;2024-01-15T04:53:34;2.90;99.90
20735;DHT22;10528;52.124;5.196;2024-01-15T04:56:01;2.90;99.90
20735;DHT22;10528;52.124;5.196;2024-01-15T04:58:28;2.90;99.90
20735;DHT22;10528;52.124;5.196;2024-01-15T05:00:56;3.00;99.90
20735;DHT22;10528;52.124;5.196;2024-01-15T05:03:23;3.00;99.90
20735;DHT22;10528;52.124;5.196;2024-01-15T05:05:50;3.00;99.90
20735;DHT22;10528;52.124;5.196;2024-01-15T05:08:17;3.00;99.90
20735;DHT22;10528;52.124;5.196;2024-01-15T05:10:44;3.00;99.90
20735;DHT22;10528;52.124;5.196;2024-01-15T05:13:11;2.90;99.90
20735;DHT22;10528;52.124;5.196;2024-01-15T05:15:38;2.90;99.90
20735;DHT22;10528;52.124;5.196;2024-01-15T05:18:06;2.80;99.90
20735;DHT22;10528;52.124;5.196;2024-01-15T05:20:33;2.80;99.90
20735;DHT22;10528;52.124;5.196;2024-01-15T05:23:01;2.80;99.90
20735;DHT22;10528;52.124;5.196;2024-01-15T05:25:28;2.80;99.90
20735;DHT22;10528;52.124;5.196;2024-01-15T05:27:55;2.80;99.90
20735;DHT22;10528;52.124;5.196;2024-01-15T05:30:22;2.80;99.90
20735;DHT22;10528;52.124;5.196;2024-01-15T05:32:49;2.80;99.90
20735;DHT22;10528;52.124;5.196;2024-01-15T05:35:16;2.80;99.90
20735;DHT22;10528;52.124;5.196;2024-01-15T05:37:44;2.70;99.90
20735;DHT22;10528;52.124;5.196;2024-01-15T05:40:12;2.80;99.90
20735;DHT22;10528;52.124;5.196;2024-01-15T05:42:40;2.80;99.90
20735;DHT22;10528;52.124;5.196;2024-01-15T05:45:08;2.80;99.90
20735;DHT22;10528;52.124;5.196;2024-01-15T05:47:35;2.80;99.90
20735;DHT22;10528;52.124;5.196;2024-01-15T05:50:02;2.80;99.90
20735;DHT22;10528;52.124;5.196;2024-01-15T05:52:29;2.90;99.90
20735;DHT22;10528;52.124;5.196;2024-01-15T05:54:56;2.90;99.90
20735;DHT22;10528;52.124;5.196;2024-01-15T05:57:23;2.90;99.90
20735;DHT22;10528;52.124;5.196;2024-01-15T05:59:50;2.90;99.90
20735;DHT22;10528;52.124;5.196;2024-01-15T06:02:17;2.90;99.90
20735;DHT22;10528;52.124;5.196;2024-01-15T06:04:44;2.90;99.90
20735;DHT22;10528;52.124;5.196;2024-01-15T06:07:11;2.80;99.90
20735;DHT22;10528;52.124;5.196;2024-01-15T06:09:38;2.80;99.90
20735;DHT22;10528;52.124;5.196;2024-01-15T06:12:07;2.80;99.90
20735;DHT22;10528;52.124;5.196;2024-01-15T06:14:34;2.70;99.90
20735;DHT22;10528;52.124;5.196;2024-01-15T06:17:01;2.60;99.90
20735;DHT22;10528;52.124;5.196;2024-01-15T06:19:28;2.60;99.90
20735;DHT22;10528;52.124;5.196;2024-01-15T06:21:55;2.60;99.90
20735;DHT22;10528;52.124;5.196;2024-01-15T06:24:23;2.50;99.90
20735;DHT22;10528;52.124;5.196;2024-01-15T06:26:50;2.50;99.90
20735;DHT22;10528;52.124;5.196;2024-01-15T06:29:17;2.50;99.90
20735;DHT22;10528;52.124;5.196;2024-01-15T06:31:44;2.50;99.90
20735;DHT22;10528;52.124;5.196;2024-01-15T06:34:11;2.40;99.90
20735;DHT22;10528;52.124;5.196;2024-01-15T06:36:38;2.40;99.90
20735;DHT22;10528;52.124;5.196;2024-01-15T06:39:06;2.40;99.90
20735;DHT22;10528;52.124;5.196;2024-01-15T06:41:33;2.40;99.90
20735;DHT22;10528;52.124;5.196;2024-01-15T06:44:00;2.40;99.90
20735;DHT22;10528;52.124;5.196;2024-01-15T06:46:27;2.50;99.90
20735;DHT22;10528;52.124;5.196;2024-01-15T06:48:54;2.50;99.90
20735;DHT22;10528;52.124;5.196;2024-01-15T06:51:21;2.50;99.90
20735;DHT22;10528;52.124;5.196;2024-01-15T06:53:48;2.50;99.90
20735;DHT22;10528;52.124;5.196;2024-01-15T06:56:15;2.50;99.90
20735;DHT22;10528;52.124;5.196;2024-01-15T06:58:42;2.40;99.90
20735;DHT22;10528;52.124;5.196;2024-01-15T07:01:08;2.40;99.90
20735;DHT22;10528;52.124;5.196;2024-01-15T07:03:36;2.40;99.90
20735;DHT22;10528;52.124;5.196;2024-01-15T07:06:03;2.40;99.90
20735;DHT22;10528;52.124;5.196;2024-01-15T07:08:30;2.40;99.90
20735;DHT22;10528;52.124;5.196;2024-01-15T07:10:57;2.40;99.90
20735;DHT22;10528;52.124;5.196;2024-01-15T07:13:24;2.30;99.90
20735;DHT22;10528;52.124;5.196;2024-01-15T07:15:51;2.40;99.90
20735;DHT22;10528;52.124;5.196;2024-01-15T07:18:18;2.30;99.90
20735;DHT22;10528;52.124;5.196;2024-01-15T07:20:45;2.20;99.90
20735;DHT22;10528;52.124;5.196;2024-01-15T07:23:12;2.30;99.90
20735;DHT22;10528;52.124;5.196;2024-01-15T07:25:39;2.20;99.90
20735;DHT22;10528;52.124;5.196;2024-01-15T07:28:06;2.30;99.90
20735;DHT22;10528;52.124;5.196;2024-01-15T07:30:33;2.30;99.90
20735;DHT22;10528;52.124;5.196;2024-01-15T07:33:00;2.30;99.90
20735;DHT22;10528;52.124;5.196;2024-01-15T07:35:27;2.30;99.90
20735;DHT22;10528;52.124;5.196;2024-01-15T07:37:54;2.30;99.90
20735;DHT22;10528;52.124;5.196;2024-01-15T07:40:21;2.20;99.90
20735;DHT22;10528;52.124;5.196;2024-01-15T07:42:48;2.30;99.90
20735;DHT22;10528;52.124;5.196;2024-01-15T07:45:15;2.30;99.90
20735;DHT22;10528;52.124;5.196;2024-01-15T07:47:43;2.30;99.90
20735;DHT22;10528;52.124;5.196;2024-01-15T07:50:11;2.30;99.90
20735;DHT22;10528;52.124;5.196;2024-01-15T07:52:40;2.30;99.90
20735;DHT22;10528;52.124;5.196;2024-01-15T07:55:08;2.40;99.90
20735;DHT22;10528;52.124;5.196;2024-01-15T07:57:35;2.40;99.90
20735;DHT22;10528;52.124;5.196;2024-01-15T08:00:05;2.40;99.90
20735;DHT22;10528;52.124;5.196;2024-01-15T08:02:33;2.30;99.90
20735;DHT22;10528;52.124;5.196;2024-01-15T08:05:03;2.40;99.90
20735;DHT22;10528;52.124;5.196;2024-01-15T08:07:31;2.40;99.90
20735;DHT22;10528;52.124;5.196;2024-01-15T08:09:58;2.40;99.90
20735;DHT22;10528;52.124;5.196;2024-01-15T08:12:25;2.40;99.90
20735;DHT22;10528;52.124;5.196;2024-01-15T08:14:52;2.30;99.90
20735;DHT22;10528;52.124;5.196;2024-01-15T08:17:19;2.40;99.90
20735;DHT22;10528;52.124;5.196;2024-01-15T08:19:46;2.40;99.90
20735;DHT22;10528;52.124;5.196;2024-01-15T08:22:13;2.40;99.90
20735;DHT22;10528;52.124;5.196;2024-01-15T08:24:40;2.40;99.90
20735;DHT22;10528;52.124;5.196;2024-01-15T08:27:07;2.40;99.90
20735;DHT22;10528;52.124;5.196;2024-01-15T08:29:34;2.30;99.90
20735;DHT22;10528;52.124;5.196;2024-01-15T08:32:01;2.40;99.90
20735;DHT22;10528;52.124;5.196;2024-01-15T08:34:29;2.40;99.90
20735;DHT22;10528;52.124;5.196;2024-01-15T08:36:57;2.50;99.90
20735;DHT22;10528;52.124;5.196;2024-01-15T08:39:25;2.50;99.90
20735;DHT22;10528;52.124;5.196;2024-01-15T08:41:52;2.50;99.90
20735;DHT22;10528;52.124;5.196;2024-01-15T08:44:18;2.40;99.90
20735;DHT22;10528;52.124;5.196;2024-01-15T08:46:45;2.30;99.90
20735;DHT22;10528;52.124;5.196;2024-01-15T08:49:12;2.40;99.90
20735;DHT22;10528;52.124;5.196;2024-01-15T08:51:40;2.40;99.90
20735;DHT22;10528;52.124;5.196;2024-01-15T08:54:07;2.40;99.90
20735;DHT22;10528;52.124;5.196;2024-01-15T08:56:35;2.40;99.90
20735;DHT22;10528;52.124;5.196;2024-01-15T08:59:02;2.40;99.90
20735;DHT22;10528;52.124;5.196;2024-01-15T09:01:29;2.50;99.90
20735;DHT22;10528;52.124;5.196;2024-01-15T09:03:56;2.60;99.90
20735;DHT22;10528;52.124;5.196;2024-01-15T09:06:23;2.50;99.90
20735;DHT22;10528;52.124;5.196;2024-01-15T09:08:50;2.30;99.90
20735;DHT22;10528;52.124;5.196;2024-01-15T09:11:17;2.40;99.90
20735;DHT22;10528;52.124;5.196;2024-01-15T09:13:44;2.40;99.90
20735;DHT22;10528;52.124;5.196;2024-01-15T09:16:11;2.30;99.90
20735;DHT22;10528;52.124;5.196;2024-01-15T09:18:38;2.40;99.90
20735;DHT22;10528;52.124;5.196;2024-01-15T09:21:05;2.30;99.90
20735;DHT22;10528;52.124;5.196;2024-01-15T09:23:32;2.30;99.90
20735;DHT22;10528;52.124;5.196;2024-01-15T09:25:59;2.30;99.90
20735;DHT22;10528;52.124;5.196;2024-01-15T09:28:26;2.40;99.90
20735;DHT22;10528;52.124;5.196;2024-01-15T09:30:52;2.60;99.90
20735;DHT22;10528;52.124;5.196;2024-01-15T09:33:20;2.70;99.90
20735;DHT22;10528;52.124;5.196;2024-01-15T09:35:47;2.60;99.90
20735;DHT22;10528;52.124;5.196;2024-01-15T09:38:13;2.60;99.90
20735;DHT22;10528;52.124;5.196;2024-01-15T09:40:43;2.60;99.90
20735;DHT22;10528;52.124;5.196;2024-01-15T09:43:13;2.60;99.90
20735;DHT22;10528;52.124;5.196;2024-01-15T09:45:42;2.60;99.90
20735;DHT22;10528;52.124;5.196;2024-01-15T09:48:10;2.60;99.90
20735;DHT22;10528;52.124;5.196;2024-01-15T09:50:37;2.60;99.90
20735;DHT22;10528;52.124;5.196;2024-01-15T09:53:05;2.60;99.90
20735;DHT22;10528;52.124;5.196;2024-01-15T09:55:32;2.50;99.90
20735;DHT22;10528;52.124;5.196;2024-01-15T09:58:00;2.60;99.90
20735;DHT22;10528;52.124;5.196;2024-01-15T10:00:29;2.70;99.90
20735;DHT22;10528;52.124;5.196;2024-01-15T10:02:59;2.90;99.90
20735;DHT22;10528;52.124;5.196;2024-01-15T10:05:29;3.00;99.90
20735;DHT22;10528;52.124;5.196;2024-01-15T10:07:57;3.20;99.90
20735;DHT22;10528;52.124;5.196;2024-01-15T10:10:24;3.30;99.90
20735;DHT22;10528;52.124;5.196;2024-01-15T10:12:54;3.40;99.90
20735;DHT22;10528;52.124;5.196;2024-01-15T10:15:26;3.50;99.90
20735;DHT22;10528;52.124;5.196;2024-01-15T10:17:53;3.50;99.90
20735;DHT22;10528;52.124;5.196;2024-01-15T10:20:21;3.40;99.90
20735;DHT22;10528;52.124;5.196;2024-01-15T10:22:51;3.50;99.90
20735;DHT22;10528;52.124;5.196;2024-01-15T10:25:18;3.60;99.90
20735;DHT22;10528;52.124;5.196;2024-01-15T10:28:04;3.60;99.90
20735;DHT22;10528;52.124;5.196;2024-01-15T10:30:34;3.70;99.90
20735;DHT22;10528;52.124;5.196;2024-01-15T10:33:03;3.80;99.90
20735;DHT22;10528;52.124;5.196;2024-01-15T10:35:34;3.70;99.90
20735;DHT22;10528;52.124;5.196;2024-01-15T10:38:02;3.60;99.90
20735;DHT22;10528;52.124;5.196;2024-01-15T10:40:30;3.60;99.90
20735;DHT22;10528;52.124;5.196;2024-01-15T10:42:58;3.50;99.90
20735;DHT22;10528;52.124;5.196;2024-01-15T10:45:25;3.40;99.90
20735;DHT22;10528;52.124;5.196;2024-01-15T10:47:54;3.60;99.90
20735;DHT22;10528;52.124;5.196;2024-01-15T10:50:21;3.60;99.90
20735;DHT22;10528;52.124;5.196;2024-01-15T10:52:48;3.60;99.90
20735;DHT22;10528;52.124;5.196;2024-01-15T10:55:17;3.60;99.90
20735;DHT22;10528;52.124;5.196;2024-01-15T10:57:48;3.60;99.90
20735;DHT22;10528;52.124;5.196;2024-01-15T11:00:16;3.70;99.90
20735;DHT22;10528;52.124;5.196;2024-01-15T11:02:44;3.70;99.90
20735;DHT22;10528;52.124;5.196;2024-01-15T11:05:12;3.60;99.90
20735;DHT22;10528;52.124;5.196;2024-01-15T11:07:40;3.60;99.90
20735;DHT22;10528;52.124;5.196;2024-01-15T11:10:08;3.60;99.90
20735;DHT22;10528;52.124;5.196;2024-01-15T11:13:13;3.60;99.90
20735;DHT22;10528;52.124;5.196;2024-01-15T11:16:07;3.60;99.90
20735;DHT22;10528;52.124;5.196;2024-01-15T11:18:41;3.60;99.90
20735;DHT22;10528;52.124;5.196;2024-01-15T11:23:55;3.50;99.90
20735;DHT22;10528;52.124;5.196;2024-01-15T11:32:07;3.80;99.90
20735;DHT22;10528;52.124;5.196;2024-01-15T11:35:01;3.80;99.90
20735;DHT22;10528;52.124;5.196;2024-01-15T11:40:39;3.70;99.90
20735;DHT22;10528;52.124;5.196;2024-01-15T11:43:09;3.70;99.90
20735;DHT22;10528;52.124;5.196;2024-01-15T11:45:36;3.60;99.90
20735;DHT22;10528;52.124;5.196;2024-01-15T11:48:11;3.60;99.90
20735;DHT22;10528;52.124;5.196;2024-01-15T11:50:48;3.50;99.90
20735;DHT22;10528;52.124;5.196;2024-01-15T11:56:21;3.40;99.90
20735;DHT22;10528;52.124;5.196;2024-01-15T11:58:50;3.40;99.90
20735;DHT22;10528;52.124;5.196;2024-01-15T12:01:18;3.30;99.90
20735;DHT22;10528;52.124;5.196;2024-01-15T12:03:47;3.30;99.90
20735;DHT22;10528;52.124;5.196;2024-01-15T12:06:14;3.20;99.90
20735;DHT22;10528;52.124;5.196;2024-01-15T12:08:41;3.20;99.90
20735;DHT22;10528;52.124;5.196;2024-01-15T12:11:13;3.30;99.90
20735;DHT22;10528;52.124;5.196;2024-01-15T12:13:42;3.30;99.90
20735;DHT22;10528;52.124;5.196;2024-01-15T12:16:10;3.40;99.90
20735;DHT22;10528;52.124;5.196;2024-01-15T12:18:37;3.50;99.90
20735;DHT22;10528;52.124;5.196;2024-01-15T12:21:04;3.50;99.90
20735;DHT22;10528;52.124;5.196;2024-01-15T12:23:31;3.50;99.90
20735;DHT22;10528;52.124;5.196;2024-01-15T12:25:58;3.50;99.90
20735;DHT22;10528;52.124;5.196;2024-01-15T12:28:27;3.60;99.90
20735;DHT22;10528;52.124;5.196;2024-01-15T12:30:55;3.50;99.90
20735;DHT22;10528;52.124;5.196;2024-01-15T12:33:22;3.60;99.90
20735;DHT22;10528;52.124;5.196;2024-01-15T12:35:53;3.60;99.90
20735;DHT22;10528;52.124;5.196;2024-01-15T12:38:20;3.70;99.90
20735;DHT22;10528;52.124;5.196;2024-01-15T12:40:48;3.70;99.90
20735;DHT22;10528;52.124;5.196;2024-01-15T12:43:15;3.80;99.90
20735;DHT22;10528;52.124;5.196;2024-01-15T12:45:42;3.90;99.90
20735;DHT22;10528;52.124;5.196;2024-01-15T12:48:10;3.70;99.90
20735;DHT22;10528;52.124;5.196;2024-01-15T12:50:37;3.40;99.90
20735;DHT22;10528;52.124;5.196;2024-01-15T12:53:04;3.30;99.90
20735;DHT22;10528;52.124;5.196;2024-01-15T12:55:31;3.20;99.90
20735;DHT22;10528;52.124;5.196;2024-01-15T12:57:58;3.10;99.90
20735;DHT22;10528;52.124;5.196;2024-01-15T13:00:25;3.20;99.90
20735;DHT22;10528;52.124;5.196;2024-01-15T13:02:53;3.10;99.90
20735;DHT22;10528;52.124;5.196;2024-01-15T13:05:22;3.10;99.90
20735;DHT22;10528;52.124;5.196;2024-01-15T13:07:50;3.10;99.90
20735;DHT22;10528;52.124;5.196;2024-01-15T13:10:17;3.00;99.90
20735;DHT22;10528;52.124;5.196;2024-01-15T13:12:44;3.10;99.90
20735;DHT22;10528;52.124;5.196;2024-01-15T13:15:11;3.20;99.90
20735;DHT22;10528;52.124;5.196;2024-01-15T13:17:41;3.40;99.90
20735;DHT22;10528;52.124;5.196;2024-01-15T13:20:09;3.40;99.90
20735;DHT22;10528;52.124;5.196;2024-01-15T13:22:38;3.50;99.90
20735;DHT22;10528;52.124;5.196;2024-01-15T13:25:07;3.60;99.90
20735;DHT22;10528;52.124;5.196;2024-01-15T13:27:35;3.60;99.90
20735;DHT22;10528;52.124;5.196;2024-01-15T13:30:06;3.70;99.90
20735;DHT22;10528;52.124;5.196;2024-01-15T13:32:35;3.70;99.90
20735;DHT22;10528;52.124;5.196;2024-01-15T13:35:02;3.60;99.90
20735;DHT22;10528;52.124;5.196;2024-01-15T13:37:32;3.60;99.90
20735;DHT22;10528;52.124;5.196;2024-01-15T13:40:00;3.60;99.90
20735;DHT22;10528;52.124;5.196;2024-01-15T13:42:27;3.50;99.90
20735;DHT22;10528;52.124;5.196;2024-01-15T13:44:55;3.70;99.90
20735;DHT22;10528;52.124;5.196;2024-01-15T13:47:22;3.60;99.90
20735;DHT22;10528;52.124;5.196;2024-01-15T13:49:49;3.50;99.90
20735;DHT22;10528;52.124;5.196;2024-01-15T13:52:16;3.50;99.90
20735;DHT22;10528;52.124;5.196;2024-01-15T13:54:44;3.50;99.90
20735;DHT22;10528;52.124;5.196;2024-01-15T13:57:17;3.40;99.90
20735;DHT22;10528;52.124;5.196;2024-01-15T13:59:45;3.50;99.90
20735;DHT22;10528;52.124;5.196;2024-01-15T14:02:13;3.60;99.90
20735;DHT22;10528;52.124;5.196;2024-01-15T14:04:47;3.60;99.90
20735;DHT22;10528;52.124;5.196;2024-01-15T14:07:15;3.60;99.90
20735;DHT22;10528;52.124;5.196;2024-01-15T14:09:43;3.60;99.90
20735;DHT22;10528;52.124;5.196;2024-01-15T14:12:10;3.60;99.90
20735;DHT22;10528;52.124;5.196;2024-01-15T14:14:38;3.80;99.90
20735;DHT22;10528;52.124;5.196;2024-01-15T14:17:05;3.80;99.90
20735;DHT22;10528;52.124;5.196;2024-01-15T14:19:32;3.80;99.90
20735;DHT22;10528;52.124;5.196;2024-01-15T14:21:59;3.70;99.90
20735;DHT22;10528;52.124;5.196;2024-01-15T14:24:26;3.70;99.90
20735;DHT22;10528;52.124;5.196;2024-01-15T14:26:53;3.70;99.90
20735;DHT22;10528;52.124;5.196;2024-01-15T14:29:20;3.60;99.90
20735;DHT22;10528;52.124;5.196;2024-01-15T14:31:49;3.60;99.90
20735;DHT22;10528;52.124;5.196;2024-01-15T14:34:16;3.60;99.90
20735;DHT22;10528;52.124;5.196;2024-01-15T14:36:45;3.60;99.90
20735;DHT22;10528;52.124;5.196;2024-01-15T14:39:13;3.70;99.90
20735;DHT22;10528;52.124;5.196;2024-01-15T14:41:40;3.80;99.90
20735;DHT22;10528;52.124;5.196;2024-01-15T14:44:07;3.80;99.90
20735;DHT22;10528;52.124;5.196;2024-01-15T14:46:34;3.80;99.90
20735;DHT22;10528;52.124;5.196;2024-01-15T14:49:01;3.70;99.90
20735;DHT22;10528;52.124;5.196;2024-01-15T14:51:29;3.60;99.90
20735;DHT22;10528;52.124;5.196;2024-01-15T14:53:56;3.60;99.90
20735;DHT22;10528;52.124;5.196;2024-01-15T14:56:23;3.60;99.90
20735;DHT22;10528;52.124;5.196;2024-01-15T14:58:50;3.60;99.90
20735;DHT22;10528;52.124;5.196;2024-01-15T15:01:17;3.60;99.90
20735;DHT22;10528;52.124;5.196;2024-01-15T15:03:44;3.60;99.90
20735;DHT22;10528;52.124;5.196;2024-01-15T15:06:11;3.60;99.90
20735;DHT22;10528;52.124;5.196;2024-01-15T15:08:39;3.60;99.90
20735;DHT22;10528;52.124;5.196;2024-01-15T15:11:07;3.80;99.90
20735;DHT22;10528;52.124;5.196;2024-01-15T15:13:35;3.80;99.90
20735;DHT22;10528;52.124;5.196;2024-01-15T15:16:12;3.80;99.90
20735;DHT22;10528;52.124;5.196;2024-01-15T15:18:41;3.80;99.90
20735;DHT22;10528;52.124;5.196;2024-01-15T15:21:13;3.80;99.90
20735;DHT22;10528;52.124;5.196;2024-01-15T15:23:40;3.80;99.90
20735;DHT22;10528;52.124;5.196;2024-01-15T15:26:07;3.80;99.90
20735;DHT22;10528;52.124;5.196;2024-01-15T15:28:35;3.70;99.90
20735;DHT22;10528;52.124;5.196;2024-01-15T15:31:04;3.70;99.90
20735;DHT22;10528;52.124;5.196;2024-01-15T15:33:35;3.80;99.90
20735;DHT22;10528;52.124;5.196;2024-01-15T15:36:03;3.80;99.90
20735;DHT22;10528;52.124;5.196;2024-01-15T15:38:32;3.90;99.90
20735;DHT22;10528;52.124;5.196;2024-01-15T15:41:00;3.80;99.90
20735;DHT22;10528;52.124;5.196;2024-01-15T15:43:28;3.70;99.90
20735;DHT22;10528;52.124;5.196;2024-01-15T15:45:56;3.80;99.90
20735;DHT22;10528;52.124;5.196;2024-01-15T15:48:26;3.80;99.90
20735;DHT22;10528;52.124;5.196;2024-01-15T15:50:53;3.80;99.90
20735;DHT22;10528;52.124;5.196;2024-01-15T15:53:22;3.80;99.90
20735;DHT22;10528;52.124;5.196;2024-01-15T15:55:49;3.70;99.90
20735;DHT22;10528;52.124;5.196;2024-01-15T15:58:16;3.60;99.90
20735;DHT22;10528;52.124;5.196;2024-01-15T16:00:43;3.60;99.90
20735;DHT22;10528;52.124;5.196;2024-01-15T16:03:10;3.60;99.90